Time;durP1;ratioP1;P1;durP2;ratioP2;P2;SDS_P1;SDS_P2;PMS_P1;PMS_P2;Temp;Humidity;BMP_temperature;BMP_pressure;BME280_temperature;BME280_humidity;BME280_pressure;Samples;Min_cycle;Max_cycle;Signal;HPM_P1;HPM_P2
2022/11/26 00:02:26;;;;;;;20.00;4.18;;;4.70;99.90;;;;;;5054865;28;20028;-72
2022/11/26 00:04:53;;;;;;;16.77;3.80;;;4.70;99.90;;;;;;5056147;28;20108;-72
2022/11/26 00:07:24;;;;;;;;;;;4.70;99.90;;;;;;5055317;28;20029;-84
2022/11/26 00:09:51;;;;;;;19.65;3.60;;;4.70;99.90;;;;;;5042972;28;19908;-86
2022/11/26 00:12:19;;;;;;;14.27;3.92;;;4.70;99.90;;;;;;5055913;28;20017;-86
2022/11/26 00:14:48;;;;;;;12.40;3.15;;;4.70;99.90;;;;;;5053273;28;20131;-85
2022/11/26 00:17:16;;;;;;;14.38;3.38;;;4.70;99.90;;;;;;5056277;28;20087;-89
2022/11/26 00:19:43;;;;;;;18.63;4.10;;;4.60;99.90;;;;;;5044913;28;20470;-85
2022/11/26 00:22:28;;;;;;;18.25;3.08;;;4.70;99.90;;;;;;5046837;28;20103;-72
2022/11/26 00:24:54;;;;;;;8.90;3.55;;;4.70;99.90;;;;;;5052769;28;20053;-78
2022/11/26 00:27:21;;;;;;;26.80;4.73;;;4.80;99.90;;;;;;5055532;28;20033;-85
2022/11/26 00:29:46;;;;;;;16.45;3.97;;;4.80;99.90;;;;;;5040720;28;20341;-79
2022/11/26 00:32:17;;;;;;;12.23;3.63;;;4.80;99.90;;;;;;5045296;28;20132;-85
2022/11/26 00:34:43;;;;;;;14.82;3.83;;;4.80;99.90;;;;;;5054023;28;20040;-75
2022/11/26 00:37:41;;;;;;;9.47;3.47;;;4.80;99.90;;;;;;5048356;28;20320;-83
2022/11/26 00:40:18;;;;;;;11.30;3.83;;;4.70;99.90;;;;;;5053788;28;20025;-83
2022/11/26 00:42:44;;;;;;;12.18;3.28;;;4.60;99.90;;;;;;5054750;28;20040;-83
2022/11/26 00:45:29;;;;;;;12.55;3.92;;;4.60;99.90;;;;;;5050961;28;20021;-72
2022/11/26 00:48:00;;;;;;;12.02;4.25;;;4.60;99.90;;;;;;5040040;28;20104;-84
2022/11/26 00:50:27;;;;;;;13.10;3.22;;;4.50;99.90;;;;;;5041694;28;20029;-84
2022/11/26 00:52:54;;;;;;;13.75;3.47;;;4.50;99.90;;;;;;5053367;28;20075;-83
2022/11/26 00:55:35;;;;;;;16.83;4.00;;;4.60;99.90;;;;;;5053760;28;20048;-84
2022/11/26 00:58:02;;;;;;;10.60;4.43;;;4.60;99.90;;;;;;5054269;28;20339;-82
2022/11/26 01:00:30;;;;;;;12.25;4.43;;;4.60;99.90;;;;;;5050197;28;20102;-84
2022/11/26 01:02:56;;;;;;;19.90;4.00;;;4.50;99.90;;;;;;5036967;28;20034;-72
2022/11/26 01:05:24;;;;;;;7.82;3.72;;;4.40;99.90;;;;;;5039878;28;20444;-84
2022/11/26 01:07:51;;;;;;;15.52;4.22;;;4.40;99.90;;;;;;5050103;28;20059;-86
2022/11/26 01:10:23;;;;;;;11.38;3.28;;;4.30;99.90;;;;;;5055127;28;20027;-84
2022/11/26 01:12:50;;;;;;;16.50;3.92;;;4.40;99.90;;;;;;5051569;28;20321;-72
2022/11/26 01:15:17;;;;;;;19.13;4.07;;;4.50;99.90;;;;;;5034450;28;20033;-86
2022/11/26 01:17:43;;;;;;;16.17;4.38;;;4.50;99.90;;;;;;5048679;28;20025;-81
2022/11/26 01:20:28;;;;;;;12.87;3.70;;;4.40;99.90;;;;;;5052087;28;20112;-82
2022/11/26 01:22:56;;;;;;;12.95;3.17;;;4.50;99.90;;;;;;5050399;28;20032;-82
2022/11/26 01:25:23;;;;;;;13.35;4.05;;;4.50;99.90;;;;;;5042331;28;20025;-72
2022/11/26 01:27:49;;;;;;;21.00;3.67;;;4.50;99.90;;;;;;5046719;28;20025;-74
2022/11/26 01:30:26;;;;;;;13.90;4.13;;;4.50;99.90;;;;;;5050802;28;20025;-72
2022/11/26 01:32:52;;;;;;;14.82;3.58;;;4.50;99.90;;;;;;5053332;28;20027;-83
2022/11/26 01:35:20;;;;;;;11.83;3.83;;;4.50;99.90;;;;;;5051986;28;20119;-82
2022/11/26 01:37:46;;;;;;;12.85;3.10;;;4.50;99.90;;;;;;5050387;28;20039;-83
2022/11/26 01:40:35;;;;;;;14.02;3.25;;;4.50;99.90;;;;;;5046949;28;20053;-82
2022/11/26 01:43:13;;;;;;;11.38;3.15;;;4.40;99.90;;;;;;5051992;28;20687;-72
2022/11/26 01:45:39;;;;;;;16.70;4.07;;;4.30;99.90;;;;;;5045372;28;20033;-82
2022/11/26 01:48:34;;;;;;;13.13;3.17;;;4.30;99.90;;;;;;5052147;28;20075;-82
2022/11/26 01:51:27;;;;;;;15.20;4.00;;;4.20;99.90;;;;;;4960015;28;20035;-82
2022/11/26 01:53:54;;;;;;;12.55;3.97;;;4.30;99.90;;;;;;4944150;28;20043;-82
2022/11/26 01:56:30;;;;;;;13.52;3.33;;;4.30;99.90;;;;;;4971006;28;20165;-82
2022/11/26 01:59:19;;;;;;;10.63;2.92;;;4.20;99.90;;;;;;4966582;28;20102;-78
2022/11/26 02:01:47;;;;;;;9.70;4.07;;;4.20;99.90;;;;;;4974616;28;20038;-72
2022/11/26 02:04:23;;;;;;;8.68;3.30;;;4.20;99.90;;;;;;4972286;28;20406;-75
2022/11/26 02:06:50;;;;;;;14.48;3.20;;;4.30;99.90;;;;;;4971968;28;20094;-81
2022/11/26 02:09:15;;;;;;;;;;;4.20;99.90;;;;;;4974800;28;20450;-80
2022/11/26 02:11:42;;;;;;;14.88;3.08;;;4.30;99.90;;;;;;4954615;28;19964;-82
2022/11/26 02:14:13;;;;;;;12.85;3.35;;;4.20;99.90;;;;;;4974209;28;20031;-81
2022/11/26 02:16:49;;;;;;;7.75;2.72;;;4.30;99.90;;;;;;4976373;28;20434;-82
2022/11/26 02:19:40;;;;;;;9.50;3.85;;;4.20;99.90;;;;;;4953789;29;20086;-80
2022/11/26 02:22:46;;;;;;;12.60;3.03;;;4.20;99.90;;;;;;4969002;28;20469;-75
2022/11/26 02:25:55;;;;;;;12.55;2.75;;;4.20;99.90;;;;;;4967299;28;20023;-82
2022/11/26 02:28:33;;;;;;;6.68;3.17;;;4.20;99.90;;;;;;5035548;28;20425;-80
2022/11/26 02:31:40;;;;;;;22.52;4.20;;;4.20;99.90;;;;;;5051364;28;20339;-81
2022/11/26 02:34:06;;;;;;;12.13;3.85;;;4.20;99.90;;;;;;5054590;28;20324;-82
2022/11/26 02:36:41;;;;;;;8.60;2.63;;;4.20;99.90;;;;;;5051428;28;20029;-81
2022/11/26 02:39:15;;;;;;;12.05;3.38;;;4.20;99.90;;;;;;5048330;28;20152;-72
2022/11/26 02:41:46;;;;;;;15.10;3.10;;;4.20;99.90;;;;;;5056087;28;20082;-81
2022/11/26 02:44:14;;;;;;;21.33;3.97;;;4.10;99.90;;;;;;5047804;28;20104;-81
2022/11/26 02:46:42;;;;;;;19.85;3.65;;;4.10;99.90;;;;;;5053616;28;20028;-81
2022/11/26 02:49:11;;;;;;;11.00;3.13;;;4.10;99.90;;;;;;5056573;28;20025;-80
2022/11/26 02:51:39;;;;;;;10.75;3.10;;;4.10;99.90;;;;;;5053198;28;20017;-81
2022/11/26 02:54:06;;;;;;;11.02;2.97;;;4.10;99.90;;;;;;5053956;28;20052;-73
2022/11/26 02:56:33;;;;;;;9.32;3.42;;;4.20;99.90;;;;;;5044722;28;20076;-82
2022/11/26 02:58:59;;;;;;;7.93;3.33;;;4.20;99.90;;;;;;5042875;28;20695;-81
2022/11/26 03:01:41;;;;;;;9.50;3.17;;;4.20;99.90;;;;;;5040337;28;20026;-82
2022/11/26 03:04:16;;;;;;;10.60;3.22;;;4.10;99.90;;;;;;5036687;28;20056;-80
2022/11/26 03:06:42;;;;;;;14.77;3.67;;;4.10;99.90;;;;;;5052458;28;20036;-81
2022/11/26 03:09:08;;;;;;;13.80;3.58;;;4.20;99.90;;;;;;5046810;28;20025;-80
2022/11/26 03:11:34;;;;;;;11.90;3.95;;;4.20;99.90;;;;;;5056224;28;20306;-78
2022/11/26 03:13:59;;;;;;;17.83;3.37;;;4.20;99.90;;;;;;5052283;28;20033;-81
2022/11/26 03:16:25;;;;;;;15.77;3.83;;;4.10;99.90;;;;;;5051558;28;20108;-80
2022/11/26 03:18:51;;;;;;;11.80;3.97;;;4.10;99.90;;;;;;5054944;28;20412;-72
2022/11/26 03:21:16;;;;;;;10.83;3.97;;;4.20;99.90;;;;;;5053829;28;20444;-80
2022/11/26 03:23:42;;;;;;;7.20;3.75;;;4.20;99.90;;;;;;5054903;28;20478;-80
2022/11/26 03:26:07;;;;;;;11.47;4.07;;;4.30;99.90;;;;;;5055910;28;20044;-73
2022/11/26 03:28:33;;;;;;;9.17;3.43;;;4.40;99.90;;;;;;5055797;28;20025;-75
2022/11/26 03:30:59;;;;;;;6.10;3.17;;;4.40;99.90;;;;;;5043316;28;20025;-71
2022/11/26 03:33:24;;;;;;;12.93;4.30;;;4.40;99.90;;;;;;5043094;28;20025;-79
2022/11/26 03:35:50;;;;;;;14.90;2.70;;;4.50;99.90;;;;;;5052352;28;20087;-72
2022/11/26 03:38:16;;;;;;;15.50;4.13;;;4.50;99.90;;;;;;5050662;28;20411;-72
2022/11/26 03:40:42;;;;;;;20.70;3.88;;;4.50;99.90;;;;;;5052640;28;20021;-80
2022/11/26 03:43:08;;;;;;;10.43;3.40;;;4.50;99.90;;;;;;5052682;28;20031;-79
2022/11/26 03:45:34;;;;;;;20.10;3.40;;;4.50;99.90;;;;;;5051878;28;20059;-72
2022/11/26 03:47:59;;;;;;;10.10;3.40;;;4.50;99.90;;;;;;5053242;28;20081;-79
2022/11/26 03:50:25;;;;;;;13.40;3.83;;;4.40;99.90;;;;;;5053795;28;20025;-72
2022/11/26 03:52:51;;;;;;;14.93;4.20;;;4.50;99.90;;;;;;5053030;28;20032;-79
2022/11/26 03:55:17;;;;;;;24.40;4.70;;;4.50;99.90;;;;;;5049423;28;20049;-79
2022/11/26 03:57:42;;;;;;;11.80;3.70;;;4.60;99.90;;;;;;5053726;28;20043;-80
2022/11/26 04:00:09;;;;;;;13.73;3.57;;;4.70;99.90;;;;;;5053037;28;20021;-72
2022/11/26 04:02:35;;;;;;;19.50;4.72;;;4.70;99.90;;;;;;5050752;28;20112;-78
2022/11/26 04:05:01;;;;;;;12.00;4.28;;;4.70;99.90;;;;;;5051141;28;20025;-79
2022/11/26 04:07:27;;;;;;;15.53;4.07;;;4.70;99.90;;;;;;5053447;28;20074;-79
2022/11/26 04:09:52;;;;;;;27.13;4.30;;;4.70;99.90;;;;;;5053787;28;20261;-79
2022/11/26 04:12:18;;;;;;;18.10;4.15;;;4.70;99.90;;;;;;5051417;28;20112;-72
2022/11/26 04:14:44;;;;;;;20.30;4.47;;;4.60;99.90;;;;;;5053565;28;20432;-73
2022/11/26 04:17:10;;;;;;;19.00;3.93;;;4.70;99.90;;;;;;5052878;28;20029;-79
2022/11/26 04:19:37;;;;;;;19.65;4.57;;;4.70;99.90;;;;;;5049542;28;20025;-79
2022/11/26 04:22:02;;;;;;;14.13;3.63;;;4.70;99.90;;;;;;5054022;28;20043;-79
2022/11/26 04:24:28;;;;;;;17.30;3.87;;;4.70;99.90;;;;;;5053688;28;20033;-78
2022/11/26 04:26:54;;;;;;;41.10;5.30;;;4.70;99.90;;;;;;5043592;28;20029;-78
2022/11/26 04:29:19;;;;;;;15.30;3.73;;;4.80;99.90;;;;;;5048218;28;20047;-79
2022/11/26 04:31:45;;;;;;;13.65;4.25;;;4.70;99.90;;;;;;5045905;28;20056;-78
2022/11/26 04:34:10;;;;;;;11.63;4.80;;;4.80;99.90;;;;;;5049665;28;20033;-79
2022/11/26 04:36:38;;;;;;;23.97;4.97;;;4.80;99.90;;;;;;5037773;28;20025;-78
2022/11/26 04:39:04;;;;;;;18.65;3.92;;;4.80;99.90;;;;;;5046990;28;20057;-73
2022/11/26 04:41:29;;;;;;;12.90;4.17;;;4.70;99.90;;;;;;5041240;28;20028;-78
2022/11/26 04:43:55;;;;;;;20.35;5.07;;;4.70;99.90;;;;;;5045142;28;20539;-78
2022/11/26 04:46:21;;;;;;;13.47;4.83;;;4.60;99.90;;;;;;5043489;28;20025;-79
2022/11/26 04:48:46;;;;;;;20.63;4.97;;;4.70;99.90;;;;;;5054328;28;20051;-78
2022/11/26 04:51:12;;;;;;;19.40;4.63;;;4.70;99.90;;;;;;5042864;28;20075;-79
2022/11/26 04:53:37;;;;;;;18.80;4.93;;;4.70;99.90;;;;;;5047847;28;20099;-79
2022/11/26 04:56:03;;;;;;;19.83;4.78;;;4.60;99.90;;;;;;5036514;28;20041;-75
2022/11/26 04:58:29;;;;;;;22.57;4.70;;;4.60;99.90;;;;;;5043438;28;20371;-79
2022/11/26 05:00:54;;;;;;;6.93;4.13;;;4.50;99.90;;;;;;5045419;28;20029;-72
2022/11/26 05:03:20;;;;;;;21.70;4.57;;;4.40;99.90;;;;;;5038950;28;20017;-79
2022/11/26 05:05:46;;;;;;;22.58;4.55;;;4.50;99.90;;;;;;5047143;28;20075;-72
2022/11/26 05:08:12;;;;;;;16.52;4.50;;;4.50;99.90;;;;;;5050017;28;20029;-78
2022/11/26 05:10:37;;;;;;;14.00;4.77;;;4.50;99.90;;;;;;5046100;28;20420;-78
2022/11/26 05:13:03;;;;;;;11.13;4.57;;;4.50;99.90;;;;;;5052873;28;20033;-73
2022/11/26 05:15:28;;;;;;;20.23;5.00;;;4.40;99.90;;;;;;5052685;28;20128;-78
2022/11/26 05:17:54;;;;;;;21.23;4.77;;;4.50;99.90;;;;;;5052404;28;20436;-72
2022/11/26 05:20:20;;;;;;;13.10;4.53;;;4.50;99.90;;;;;;5053802;28;20532;-80
2022/11/26 05:22:45;;;;;;;22.00;4.57;;;4.50;99.90;;;;;;5052953;28;20037;-72
2022/11/26 05:25:11;;;;;;;19.40;5.53;;;4.50;99.90;;;;;;5048027;28;20057;-79
2022/11/26 05:27:37;;;;;;;13.00;5.40;;;4.50;99.90;;;;;;5039914;28;20052;-71
2022/11/26 05:30:04;;;;;;;15.77;6.03;;;4.60;99.90;;;;;;5053774;28;20268;-80
2022/11/26 05:32:29;;;;;;;;;;;4.60;99.90;;;;;;5053899;28;20021;-73
2022/11/26 05:34:55;;;;;;;20.30;5.37;;;4.60;99.90;;;;;;5048967;28;19909;-73
2022/11/26 05:37:21;;;;;;;18.83;5.22;;;4.60;99.90;;;;;;5046225;28;20029;-79
2022/11/26 05:39:46;;;;;;;18.43;5.67;;;4.60;99.90;;;;;;5046760;28;20123;-78
2022/11/26 05:42:14;;;;;;;17.00;5.60;;;4.70;99.90;;;;;;5057632;28;20028;-74
2022/11/26 05:44:39;;;;;;;16.90;5.78;;;4.70;99.90;;;;;;5056966;28;20029;-72
2022/11/26 05:47:05;;;;;;;16.85;5.80;;;4.60;99.90;;;;;;5050097;28;20029;-78
2022/11/26 05:49:31;;;;;;;22.73;6.07;;;4.70;99.90;;;;;;5053339;28;20036;-78
2022/11/26 05:51:56;;;;;;;15.83;5.57;;;4.60;99.90;;;;;;5051714;28;20033;-73
2022/11/26 05:54:22;;;;;;;17.80;6.15;;;4.60;99.90;;;;;;5045818;28;20049;-72
2022/11/26 05:56:48;;;;;;;18.50;5.90;;;4.60;99.90;;;;;;5056319;28;20044;-76
2022/11/26 05:59:14;;;;;;;28.77;5.85;;;4.70;99.90;;;;;;5058021;28;20037;-77
2022/11/26 06:01:39;;;;;;;13.00;4.40;;;4.70;99.90;;;;;;5052779;28;20029;-78
2022/11/26 06:04:05;;;;;;;31.38;7.57;;;4.60;99.90;;;;;;5056740;28;20029;-79
2022/11/26 06:06:31;;;;;;;29.10;6.50;;;4.60;99.90;;;;;;5056251;28;20428;-73
2022/11/26 06:08:56;;;;;;;20.47;6.37;;;4.60;99.90;;;;;;5050028;28;20017;-80
2022/11/26 06:11:22;;;;;;;21.90;6.57;;;4.60;99.90;;;;;;5020600;28;20057;-78
2022/11/26 06:13:48;;;;;;;21.60;5.93;;;4.60;99.90;;;;;;5056261;28;20020;-77
2022/11/26 06:16:13;;;;;;;29.53;6.67;;;4.60;99.90;;;;;;5054878;28;20628;-74
2022/11/26 06:18:39;;;;;;;18.07;5.97;;;4.60;99.90;;;;;;5055040;28;20075;-72
2022/11/26 06:21:06;;;;;;;25.17;7.38;;;4.60;99.90;;;;;;5057063;28;20045;-77
2022/11/26 06:23:33;;;;;;;21.15;6.18;;;4.60;99.90;;;;;;5055770;28;20055;-78
2022/11/26 06:25:59;;;;;;;21.02;6.45;;;4.50;99.90;;;;;;5054868;28;20017;-73
2022/11/26 06:28:24;;;;;;;21.93;6.43;;;4.50;99.90;;;;;;5055921;28;20029;-73
2022/11/26 06:30:50;;;;;;;15.10;6.60;;;4.40;99.90;;;;;;5056868;28;20087;-73
2022/11/26 06:33:16;;;;;;;23.73;6.70;;;4.40;99.90;;;;;;5045349;28;20027;-75
2022/11/26 06:35:41;;;;;;;25.23;7.77;;;4.40;99.90;;;;;;5055109;28;20032;-78
2022/11/26 06:38:07;;;;;;;31.30;7.70;;;4.50;99.90;;;;;;5052186;28;20321;-77
2022/11/26 06:40:33;;;;;;;23.87;7.03;;;4.50;99.90;;;;;;5055862;28;20447;-74
2022/11/26 06:42:59;;;;;;;20.50;7.33;;;4.60;99.90;;;;;;5047058;28;20068;-78
2022/11/26 06:45:24;;;;;;;23.97;8.73;;;4.70;99.90;;;;;;5048468;28;20057;-73
2022/11/26 06:47:51;;;;;;;28.70;6.20;;;4.80;99.90;;;;;;5049900;28;20176;-77
2022/11/26 06:50:18;;;;;;;26.98;7.63;;;4.80;99.90;;;;;;5055069;28;20013;-77
2022/11/26 06:52:44;;;;;;;24.77;7.35;;;4.80;99.90;;;;;;5049224;28;20142;-73
2022/11/26 06:55:10;;;;;;;25.63;8.30;;;4.80;99.90;;;;;;5047785;28;20087;-77
2022/11/26 06:57:36;;;;;;;28.40;8.30;;;4.70;99.90;;;;;;5048866;28;20041;-78
2022/11/26 07:00:03;;;;;;;22.27;8.00;;;4.70;99.90;;;;;;5051134;28;20436;-75
2022/11/26 07:02:29;;;;;;;24.52;7.70;;;4.70;99.90;;;;;;5051935;28;20373;-77
2022/11/26 07:04:55;;;;;;;21.60;7.22;;;4.70;99.90;;;;;;5055136;28;20162;-77
2022/11/26 07:07:20;;;;;;;27.70;8.13;;;4.70;99.90;;;;;;5051223;28;20111;-78
2022/11/26 07:09:47;;;;;;;21.90;7.90;;;4.70;99.90;;;;;;5046658;28;20053;-78
2022/11/26 07:12:13;;;;;;;22.80;7.27;;;4.60;99.90;;;;;;5052050;28;20032;-78
2022/11/26 07:14:38;;;;;;;21.73;6.88;;;4.70;99.90;;;;;;5056066;28;20025;-77
2022/11/26 07:17:04;;;;;;;22.27;8.97;;;4.70;99.90;;;;;;5052847;28;20416;-78
2022/11/26 07:19:30;;;;;;;23.30;8.70;;;4.70;99.90;;;;;;5051902;28;20323;-77
2022/11/26 07:21:55;;;;;;;19.67;8.00;;;4.70;99.90;;;;;;5053837;28;20112;-77
2022/11/26 07:24:21;;;;;;;26.77;8.45;;;4.90;99.90;;;;;;5052267;28;20435;-74
2022/11/26 07:26:47;;;;;;;26.58;8.57;;;5.00;99.90;;;;;;5052227;28;20427;-78
2022/11/26 07:29:12;;;;;;;41.20;8.25;;;5.10;99.90;;;;;;5042677;28;20029;-72
2022/11/26 07:31:38;;;;;;;36.57;9.43;;;5.10;99.90;;;;;;5048829;28;20021;-76
2022/11/26 07:34:04;;;;;;;36.90;9.13;;;5.30;99.90;;;;;;5044524;28;20040;-73
2022/11/26 07:36:30;;;;;;;22.80;7.50;;;5.30;99.90;;;;;;5055702;28;20324;-72
2022/11/26 07:38:58;;;;;;;39.03;8.85;;;5.40;99.90;;;;;;5055812;28;20324;-78
2022/11/26 07:41:24;;;;;;;36.50;9.23;;;5.50;99.90;;;;;;5045208;28;20032;-74
2022/11/26 07:43:50;;;;;;;19.80;7.65;;;5.50;99.90;;;;;;5047335;28;20037;-77
2022/11/26 07:46:19;;;;;;;33.40;8.33;;;5.40;99.90;;;;;;5053971;28;20021;-77
2022/11/26 07:48:45;;;;;;;32.95;9.73;;;5.50;99.90;;;;;;5049017;28;20078;-77
2022/11/26 07:51:26;;;;;;;37.80;9.43;;;5.40;99.90;;;;;;5054027;28;20021;-78
2022/11/26 07:53:53;;;;;;;33.50;8.55;;;5.50;99.90;;;;;;5054881;28;20048;-79
2022/11/26 07:56:19;;;;;;;31.02;8.55;;;5.60;99.90;;;;;;5055179;28;20037;-78
2022/11/26 07:58:45;;;;;;;31.27;9.03;;;5.60;99.90;;;;;;5051648;28;20021;-77
2022/11/26 08:01:22;;;;;;;32.75;9.13;;;5.70;99.90;;;;;;5053594;28;20321;-78
2022/11/26 08:03:49;;;;;;;36.75;8.57;;;5.70;99.90;;;;;;5051116;28;20043;-78
2022/11/26 08:06:18;;;;;;;25.80;8.57;;;5.70;99.90;;;;;;5052545;28;20017;-77
2022/11/26 08:08:44;;;;;;;23.98;7.75;;;5.70;99.90;;;;;;5052791;28;20048;-77
2022/11/26 08:11:25;;;;;;;31.73;8.05;;;5.70;99.90;;;;;;5053893;28;20025;-78
2022/11/26 08:13:54;;;;;;;29.25;8.57;;;5.70;99.90;;;;;;5048361;28;20030;-78
2022/11/26 08:16:19;;;;;;;25.65;7.97;;;5.80;99.90;;;;;;5053394;28;20032;-80
2022/11/26 08:18:45;;;;;;;23.00;7.43;;;5.80;99.90;;;;;;5052395;28;20170;-77
2022/11/26 08:21:10;;;;;;;20.77;7.97;;;5.80;99.90;;;;;;5051107;28;20035;-78
2022/11/26 08:23:37;;;;;;;20.83;8.00;;;5.90;99.90;;;;;;5051023;28;20028;-74
2022/11/26 08:26:08;;;;;;;30.77;8.70;;;5.90;99.90;;;;;;5050422;28;20021;-78
2022/11/26 08:28:34;;;;;;;28.25;7.82;;;6.00;99.90;;;;;;5050345;28;20045;-73
2022/11/26 08:31:05;;;;;;;33.70;8.53;;;6.00;99.90;;;;;;5053452;28;20409;-79
2022/11/26 08:33:31;;;;;;;23.00;7.65;;;6.10;99.90;;;;;;5052115;28;20404;-78
2022/11/26 08:35:57;;;;;;;32.65;8.80;;;6.20;99.90;;;;;;5051544;28;20605;-78
2022/11/26 08:38:23;;;;;;;16.30;6.90;;;6.20;99.90;;;;;;5052212;28;20367;-74
2022/11/26 08:40:49;;;;;;;31.05;7.43;;;6.30;99.90;;;;;;5050199;28;20505;-78
2022/11/26 08:43:15;;;;;;;24.57;7.63;;;6.40;99.90;;;;;;5044975;28;20328;-73
2022/11/26 08:45:41;;;;;;;37.57;7.90;;;6.40;99.90;;;;;;5054245;28;20037;-75
2022/11/26 08:48:06;;;;;;;33.73;7.93;;;6.50;99.90;;;;;;5052033;28;20412;-73
2022/11/26 08:50:33;;;;;;;24.90;8.57;;;6.50;99.90;;;;;;5051726;28;20021;-79
2022/11/26 08:52:59;;;;;;;34.53;8.02;;;6.50;99.90;;;;;;5054088;28;20055;-79
2022/11/26 08:55:24;;;;;;;30.43;8.37;;;6.60;99.90;;;;;;5049026;28;20432;-73
2022/11/26 08:57:50;;;;;;;25.20;8.57;;;6.60;99.90;;;;;;5050595;28;20074;-73
2022/11/26 09:00:16;;;;;;;29.90;8.90;;;6.60;99.90;;;;;;5049775;28;20049;-73
2022/11/26 09:02:42;;;;;;;32.08;7.85;;;6.70;99.90;;;;;;5047783;28;20025;-79
2022/11/26 09:05:08;;;;;;;28.93;7.63;;;6.60;99.90;;;;;;5045293;28;20369;-80
2022/11/26 09:07:33;;;;;;;40.40;8.00;;;6.60;99.90;;;;;;5051114;28;20021;-75
2022/11/26 09:09:59;;;;;;;44.10;8.70;;;6.60;99.90;;;;;;5051885;28;20021;-80
2022/11/26 09:12:25;;;;;;;30.20;7.78;;;6.70;99.90;;;;;;5052587;28;20025;-73
2022/11/26 09:14:50;;;;;;;27.23;8.13;;;6.70;99.90;;;;;;5052137;28;20451;-81
2022/11/26 09:17:16;;;;;;;32.60;8.60;;;6.70;99.90;;;;;;5052532;28;20412;-73
2022/11/26 09:19:42;;;;;;;29.40;7.07;;;6.80;99.90;;;;;;5053203;28;20021;-72
2022/11/26 09:22:07;;;;;;;45.07;12.37;;;6.90;99.90;;;;;;5054193;28;20099;-80
2022/11/26 09:24:33;;;;;;;17.60;7.90;;;6.90;99.90;;;;;;5047560;28;20037;-73
2022/11/26 09:26:59;;;;;;;57.60;17.97;;;7.00;99.90;;;;;;5050716;28;20033;-81
2022/11/26 09:29:24;;;;;;;51.30;18.02;;;7.10;99.90;;;;;;5044155;28;20513;-79
2022/11/26 09:31:51;;;;;;;32.17;9.90;;;7.20;99.90;;;;;;5044073;28;20034;-72
2022/11/26 09:34:16;;;;;;;34.45;10.13;;;7.20;99.90;;;;;;5049338;28;20032;-82
2022/11/26 09:36:43;;;;;;;36.23;17.50;;;7.20;99.90;;;;;;5049523;28;20033;-80
2022/11/26 09:39:12;;;;;;;35.60;12.20;;;7.20;99.90;;;;;;5050408;28;20029;-81
2022/11/26 09:41:49;;;;;;;27.35;12.30;;;7.30;99.90;;;;;;5048112;28;20029;-72
2022/11/26 09:44:41;;;;;;;34.00;11.13;;;7.30;99.90;;;;;;5049471;28;20031;-73
2022/11/26 09:47:21;;;;;;;28.90;11.45;;;7.30;99.90;;;;;;5050237;28;20344;-73
2022/11/26 09:50:11;;;;;;;37.90;14.73;;;7.40;99.90;;;;;;5053057;28;20045;-80
2022/11/26 09:53:01;;;;;;;28.83;9.95;;;7.50;99.90;;;;;;5049660;28;20021;-79
2022/11/26 09:55:30;;;;;;;40.92;16.83;;;7.70;99.90;;;;;;5045827;28;20053;-81
2022/11/26 09:58:25;;;;;;;23.27;11.45;;;7.90;99.90;;;;;;5041542;28;20045;-72
2022/11/26 10:00:53;;;;;;;33.55;9.43;;;8.10;99.90;;;;;;5050065;28;20090;-86
2022/11/26 10:03:21;;;;;;;37.90;9.93;;;8.20;99.90;;;;;;5050155;28;20043;-81
2022/11/26 10:06:01;;;;;;;34.33;8.43;;;8.30;99.90;;;;;;5036834;28;20113;-83
2022/11/26 10:08:54;;;;;;;23.85;7.97;;;8.30;99.90;;;;;;5049792;28;20402;-74
2022/11/26 10:11:39;;;;;;;21.23;6.72;;;8.20;99.90;;;;;;5051925;28;20036;-82
2022/11/26 10:14:23;;;;;;;24.33;7.78;;;8.20;99.90;;;;;;5052937;28;20060;-83
2022/11/26 10:17:16;;;;;;;22.50;7.55;;;8.20;99.90;;;;;;5045180;28;20064;-82
2022/11/26 10:19:51;;;;;;;32.30;12.65;;;8.20;99.90;;;;;;5045739;28;20060;-82
2022/11/26 10:22:55;;;;;;;36.85;15.65;;;8.10;99.90;;;;;;5050184;28;20056;-73
2022/11/26 10:25:25;;;;;;;32.63;9.15;;;8.20;99.90;;;;;;5033829;28;20036;-83
2022/11/26 10:27:54;;;;;;;19.55;6.50;;;8.20;99.90;;;;;;5052641;28;20029;-84
2022/11/26 10:30:21;;;;;;;34.55;10.05;;;8.20;99.90;;;;;;5048356;28;20033;-84
2022/11/26 10:32:49;;;;;;;24.30;7.95;;;8.20;99.90;;;;;;5043093;28;20063;-85
2022/11/26 10:35:17;;;;;;;29.92;7.45;;;8.30;99.90;;;;;;5056300;28;20025;-73
2022/11/26 10:37:43;;;;;;;34.58;8.82;;;8.30;99.90;;;;;;5045095;28;20029;-83
2022/11/26 10:40:25;;;;;;;30.27;8.17;;;8.40;99.90;;;;;;5044048;28;20023;-88
2022/11/26 10:42:58;;;;;;;31.85;8.23;;;8.50;99.90;;;;;;5056369;28;20085;-73
2022/11/26 10:45:33;;;;;;;33.67;10.00;;;8.50;99.90;;;;;;5047666;28;20052;-83
2022/11/26 10:48:17;;;;;;;25.15;8.00;;;8.60;99.90;;;;;;5053912;28;20112;-85
2022/11/26 10:51:03;;;;;;;36.90;8.90;;;8.70;99.90;;;;;;5055686;28;20029;-84
2022/11/26 10:53:33;;;;;;;58.38;15.02;;;8.70;99.90;;;;;;5056441;28;20056;-83
2022/11/26 10:56:03;;;;;;;25.75;7.78;;;8.70;99.90;;;;;;5047389;28;20067;-90
2022/11/26 10:58:41;;;;;;;37.25;12.45;;;8.70;99.90;;;;;;5056082;28;20021;-84
2022/11/26 11:01:08;;;;;;;38.53;13.23;;;8.90;99.90;;;;;;5050935;28;20036;-73
2022/11/26 11:03:46;;;;;;;34.63;11.50;;;9.00;99.90;;;;;;5050777;28;20102;-78
2022/11/26 11:06:17;;;;;;;53.78;17.17;;;9.00;99.90;;;;;;5054566;28;20056;-84
2022/11/26 11:08:44;;;;;;;31.10;10.05;;;9.10;99.90;;;;;;5054190;28;20032;-87
2022/11/26 11:11:18;;;;;;;;;;;9.20;99.90;;;;;;5051449;28;20024;-89
2022/11/26 11:13:46;;;;;;;55.17;19.73;;;9.20;99.90;;;;;;5054202;28;19962;-83
2022/11/26 11:16:13;;;;;;;31.30;12.07;;;9.30;99.90;;;;;;5056694;28;20086;-86
2022/11/26 11:18:53;;;;;;;34.20;10.02;;;9.30;99.90;;;;;;5056639;28;20120;-85
2022/11/26 11:21:20;;;;;;;34.35;9.60;;;9.40;99.90;;;;;;5038879;28;20715;-86
2022/11/26 11:23:47;;;;;;;26.77;8.07;;;9.40;99.90;;;;;;5056546;28;20033;-73
2022/11/26 11:26:22;;;;;;;23.10;6.97;;;9.40;99.90;;;;;;5054419;28;20025;-72
2022/11/26 11:28:51;;;;;;;33.28;8.85;;;9.40;99.90;;;;;;5055658;28;20036;-87
2022/11/26 11:31:25;;;;;;;29.73;12.32;;;9.50;99.90;;;;;;5042398;28;20026;-84
2022/11/26 11:34:18;;;;;;;18.40;6.60;;;9.50;99.90;;;;;;5038075;28;20017;-87
2022/11/26 11:37:01;;;;;;;23.58;13.80;;;9.40;99.90;;;;;;5044615;28;20029;-86
2022/11/26 11:39:33;;;;;;;29.65;9.15;;;9.50;99.90;;;;;;5053574;28;20021;-84
2022/11/26 11:42:02;;;;;;;46.63;17.17;;;9.50;99.90;;;;;;5058361;28;20052;-84
2022/11/26 11:44:41;;;;;;;22.83;7.13;;;9.50;99.90;;;;;;5054138;28;20419;-87
2022/11/26 11:47:26;;;;;;;72.95;30.42;;;9.50;99.90;;;;;;5056427;28;20036;-75
2022/11/26 11:50:01;;;;;;;37.35;15.68;;;9.60;99.90;;;;;;5042743;28;20071;-85
2022/11/26 11:52:32;;;;;;;56.15;20.80;;;9.60;99.90;;;;;;5054871;28;20032;-85
2022/11/26 11:55:26;;;;;;;49.40;19.08;;;9.70;99.90;;;;;;5053588;28;20059;-78
2022/11/26 11:58:10;;;;;;;57.33;21.48;;;9.60;99.90;;;;;;5048808;28;20513;-85
2022/11/26 12:01:05;;;;;;;48.15;16.20;;;9.60;99.90;;;;;;5041970;28;20079;-86
2022/11/26 12:03:50;;;;;;;56.30;19.13;;;9.70;99.90;;;;;;5055504;28;20029;-74
2022/11/26 12:06:38;;;;;;;31.10;9.35;;;9.70;99.90;;;;;;5055853;28;20094;-87
2022/11/26 12:09:25;;;;;;;30.83;10.02;;;9.70;99.90;;;;;;5050981;28;20075;-86
2022/11/26 12:12:21;;;;;;;28.27;6.97;;;9.70;99.90;;;;;;5035406;28;20417;-85
2022/11/26 12:14:49;;;;;;;39.05;13.00;;;9.70;99.90;;;;;;5048710;28;20037;-73
2022/11/26 12:17:30;;;;;;;54.95;23.30;;;9.70;99.90;;;;;;5049641;28;20021;-74
2022/11/26 12:20:02;;;;;;;36.40;12.13;;;9.80;99.90;;;;;;5052195;28;20479;-74
2022/11/26 12:22:43;;;;;;;26.65;7.70;;;9.90;99.90;;;;;;5051494;28;20029;-73
2022/11/26 12:25:32;;;;;;;26.48;13.65;;;9.90;99.90;;;;;;5044479;28;20075;-84
2022/11/26 12:28:02;;;;;;;16.33;5.57;;;10.00;99.90;;;;;;5050314;28;20405;-87
2022/11/26 12:30:52;;;;;;;23.48;6.70;;;10.00;99.90;;;;;;5047318;28;20021;-84
2022/11/26 12:33:26;;;;;;;41.88;13.05;;;10.00;99.90;;;;;;5049105;28;20092;-82
2022/11/26 12:36:23;;;;;;;21.83;8.57;;;10.10;99.90;;;;;;5051233;28;20163;-83
2022/11/26 12:38:53;;;;;;;27.60;6.40;;;10.00;99.90;;;;;;5046353;28;20428;-84
2022/11/26 12:41:42;;;;;;;31.83;7.68;;;10.00;99.90;;;;;;5053160;28;20032;-85
2022/11/26 12:44:40;;;;;;;25.17;7.07;;;10.00;99.90;;;;;;5015422;28;20130;-73
2022/11/26 12:47:18;;;;;;;49.80;21.10;;;10.00;99.90;;;;;;5039390;28;20040;-84
2022/11/26 12:50:15;;;;;;;26.55;7.35;;;10.00;99.90;;;;;;5054400;28;20041;-82
2022/11/26 12:53:08;;;;;;;24.42;7.82;;;10.00;99.90;;;;;;5053655;28;20075;-73
2022/11/26 12:56:16;;;;;;;18.52;5.80;;;10.00;99.90;;;;;;5054612;28;20040;-82
2022/11/26 12:59:02;;;;;;;18.65;5.80;;;10.10;99.90;;;;;;5026004;28;20032;-81
2022/11/26 13:01:28;;;;;;;;;;;10.00;99.90;;;;;;5058817;28;20431;-85
2022/11/26 13:03:55;;;;;;;30.02;6.68;;;10.00;99.90;;;;;;5052075;28;19959;-79
2022/11/26 13:06:32;;;;;;;28.77;8.95;;;10.00;99.90;;;;;;5054683;28;20029;-87
2022/11/26 13:09:07;;;;;;;22.75;11.15;;;10.10;99.90;;;;;;5054687;28;20363;-85